CheckWX is a tool to help pilots better visualize weather data.  It is not intended as a substitute for an official pre-flight weather briefing.

06:44:26 UTC

KLCK TAF
Rickenbacker International Airport
Columbus, Ohio, USA
KLCK 160624Z 1606/1706 20008KT P6SM BKN007 OVC035 FM161000 20007KT 5SM SHRA BKN012 OVC040 FM161600 22009KT P6SM VCSH OVC025 FM162100 24006KT P6SM BKN035 FM170000 23004KT P6SM BKN100

Jun-16@
06:00 UTC

Jun-16 @ 06:00 UTC

Jun-16@
10:00 UTC

Jun-16 @ 10:00 UTC

KLCK 160624Z 1606/1706 20008KT P6SM BKN007 OVC035
Wind
  • 200° at 8 KTS
Cloud Levels
  • Broken at 700' AGL
  • Overcast at 3,500' AGL

Jun-16@
10:00 UTC

Jun-16 @ 10:00 UTC

Jun-16@
16:00 UTC

Jun-16 @ 16:00 UTC

FM161000 20007KT 5SM SHRA BKN012 OVC040

From

From Standard forecast or significant change

Wind
  • 200° at 7 KTS
Conditions
Rain
Cloud Levels
  • Broken at 1,200' AGL
  • Overcast at 4,000' AGL

Jun-16@
16:00 UTC

Jun-16 @ 16:00 UTC

Jun-16@
21:00 UTC

Jun-16 @ 21:00 UTC

FM161600 22009KT P6SM VCSH OVC025

From

From Standard forecast or significant change

Wind
  • 220° at 9 KTS
Cloud Levels
  • Overcast at 2,500' AGL

Jun-16@
21:00 UTC

Jun-16 @ 21:00 UTC

Jun-17@
00:00 UTC

Jun-17 @ 00:00 UTC

FM162100 24006KT P6SM BKN035

From

From Standard forecast or significant change

Wind
  • 240° at 6 KTS
Cloud Levels
  • Broken at 3,500' AGL

Jun-17@
00:00 UTC

Jun-17 @ 00:00 UTC

Jun-17@
06:00 UTC

Jun-17 @ 06:00 UTC

FM170000 23004KT P6SM BKN100

From

From Standard forecast or significant change

Wind
  • 230° at 4 KTS
Cloud Levels
  • Broken at 10,000' AGL